Time;durP1;ratioP1;P1;durP2;ratioP2;P2;SDS_P1;SDS_P2;PMS_P1;PMS_P2;Temp;Humidity;BMP_temperature;BMP_pressure;BME280_temperature;BME280_humidity;BME280_pressure;Samples;Min_cycle;Max_cycle;Signal;HPM_P1;HPM_P2
2021/07/29 00:00:36;;;;;;;28.90;25.90;;;;;;;19.83;100.00;98726.56;2089303;28;20445;-74
2021/07/29 00:01:37;;;;;;;28.70;25.93;;;;;;;19.82;100.00;98720.38;2088157;28;20556;-73
2021/07/29 00:02:38;;;;;;;29.70;26.73;;;;;;;19.82;100.00;98720.38;2088403;28;20461;-73
2021/07/29 00:03:39;;;;;;;28.43;25.40;;;;;;;19.82;100.00;98720.38;2088452;28;20233;-73
2021/07/29 00:04:41;;;;;;;28.10;25.37;;;;;;;19.82;100.00;98719.59;2088568;28;20859;-73
2021/07/29 00:05:42;;;;;;;28.37;25.57;;;;;;;19.82;100.00;98719.59;2089268;28;20453;-74
2021/07/29 00:06:43;;;;;;;26.80;24.30;;;;;;;19.85;100.00;98716.13;2089255;28;20456;-73
2021/07/29 00:07:44;;;;;;;29.40;26.20;;;;;;;19.90;100.00;98721.25;2089334;28;20214;-73
2021/07/29 00:08:45;;;;;;;29.47;25.60;;;;;;;19.88;100.00;98712.69;2089362;28;20453;-73
2021/07/29 00:09:46;;;;;;;28.07;24.93;;;;;;;19.89;100.00;98720.44;2089291;28;20578;-74
2021/07/29 00:10:49;;;;;;;27.57;24.90;;;;;;;19.88;100.00;98709.97;2089327;28;20500;-74
2021/07/29 00:11:49;;;;;;;28.63;25.90;;;;;;;19.90;100.00;98713.91;2089299;28;20775;-74
2021/07/29 00:12:51;;;;;;;28.27;25.57;;;;;;;19.91;100.00;98722.81;2088359;28;20815;-73
2021/07/29 00:13:57;;;;;;;28.23;25.53;;;;;;;19.92;100.00;98718.94;2088275;28;20649;-73
2021/07/29 00:15:00;;;;;;;29.73;26.77;;;;;;;19.99;100.00;98722.53;2088774;28;20465;-73
2021/07/29 00:16:02;;;;;;;28.50;25.63;;;;;;;19.94;100.00;98717.44;2080521;28;20557;-74
2021/07/29 00:17:09;;;;;;;30.30;27.27;;;;;;;19.99;100.00;98713.63;2088527;28;20461;-74
2021/07/29 00:19:29;;;;;;;30.33;26.77;;;;;;;19.95;100.00;98710.88;2081617;28;20528;-75
2021/07/29 00:20:29;;;;;;;30.47;27.27;;;;;;;19.96;100.00;98707.00;2080866;28;20442;-73
2021/07/29 00:21:31;;;;;;;31.37;27.77;;;;;;;19.98;100.00;98704.72;2081003;28;20315;-74
2021/07/29 00:22:32;;;;;;;29.73;26.43;;;;;;;19.97;100.00;98713.97;2080878;28;20307;-74
2021/07/29 00:23:33;;;;;;;30.70;27.23;;;;;;;19.96;100.00;98709.72;2080883;28;20439;-74
2021/07/29 00:24:34;;;;;;;31.53;26.63;;;;;;;19.99;100.00;98724.47;2080828;28;20306;-74
2021/07/29 00:25:36;;;;;;;30.73;27.13;;;;;;;19.95;100.00;98719.00;2080944;28;20457;-73
2021/07/29 00:26:39;;;;;;;32.80;28.00;;;;;;;19.93;100.00;98715.09;2080820;28;20239;-73
2021/07/29 00:27:41;;;;;;;31.37;27.90;;;;;;;19.92;100.00;98716.25;2087117;28;20469;-73
2021/07/29 00:28:42;;;;;;;32.03;28.33;;;;;;;19.89;100.00;98719.66;2089187;28;20453;-74
2021/07/29 00:29:43;;;;;;;34.70;28.37;;;;;;;19.88;100.00;98718.09;2089155;28;20445;-74
2021/07/29 00:30:45;;;;;;;31.23;27.43;;;;;;;19.90;100.00;98711.19;2089246;28;20704;-73
2021/07/29 00:31:47;;;;;;;39.23;29.23;;;;;;;19.88;100.00;98716.19;2089028;28;20445;-73
2021/07/29 00:32:48;;;;;;;33.37;28.20;;;;;;;19.87;100.00;98714.63;2089082;28;20445;-74
2021/07/29 00:33:49;;;;;;;35.37;30.17;;;;;;;19.87;100.00;98713.84;2088320;28;20445;-74
2021/07/29 00:34:50;;;;;;;35.20;29.07;;;;;;;19.85;100.00;98713.44;2088449;28;20284;-74
2021/07/29 00:35:51;;;;;;;32.63;28.40;;;;;;;19.82;100.00;98716.88;2089118;28;20888;-73
2021/07/29 00:36:52;;;;;;;32.53;28.77;;;;;;;19.80;100.00;98719.94;2088567;28;20222;-74
2021/07/29 00:38:00;;;;;;;34.13;28.73;;;;;;;19.81;100.00;98713.41;2088565;28;20459;-73
2021/07/29 00:39:03;;;;;;;41.83;30.63;;;;;;;19.82;100.00;98725.00;2088447;28;20242;-72
2021/07/29 00:40:05;;;;;;;39.07;30.00;;;;;;;19.83;100.00;98721.16;2089022;28;20461;-73
2021/07/29 00:41:06;;;;;;;36.33;30.37;;;;;;;19.76;100.00;98719.13;2088981;28;20484;-73
2021/07/29 00:42:07;;;;;;;37.03;29.83;;;;;;;19.74;100.00;98729.53;2088583;28;20457;-73
2021/07/29 00:43:09;;;;;;;40.20;32.30;;;;;;;19.70;100.00;98724.03;2088963;28;20457;-73
2021/07/29 00:44:09;;;;;;;45.40;36.60;;;;;;;19.68;100.00;98742.59;2088990;28;20223;-73
2021/07/29 00:45:11;;;;;;;44.27;37.33;;;;;;;19.61;100.00;98742.47;2088949;28;20463;-73
2021/07/29 00:46:14;;;;;;;42.07;37.20;;;;;;;19.57;100.00;98746.28;2089036;28;20234;-73
2021/07/29 00:47:17;;;;;;;42.73;36.63;;;;;;;19.52;100.00;98750.03;2088918;28;20767;-73
2021/07/29 00:48:19;;;;;;;40.23;36.03;;;;;;;19.45;100.00;98747.22;2088931;28;21001;-72
2021/07/29 00:49:20;;;;;;;41.17;36.80;;;;;;;19.36;100.00;98752.88;2089103;28;20461;-73
2021/07/29 00:50:21;;;;;;;40.80;36.73;;;;;;;19.35;100.00;98743.19;2089009;28;20461;-73
2021/07/29 00:51:23;;;;;;;39.93;36.00;;;;;;;19.29;100.00;98747.38;2087783;28;20461;-72
2021/07/29 00:52:24;;;;;;;39.37;35.47;;;;;;;19.22;100.00;98746.47;2088222;28;20275;-73
2021/07/29 00:53:25;;;;;;;41.07;36.63;;;;;;;19.17;100.00;98751.00;2089003;28;20465;-72
2021/07/29 00:54:28;;;;;;;42.83;38.17;;;;;;;19.15;100.00;98753.31;2088903;28;20223;-72
2021/07/29 00:55:29;;;;;;;44.57;39.87;;;;;;;19.12;100.00;98748.63;2088170;28;20827;-72
2021/07/29 00:56:30;;;;;;;45.17;40.50;;;;;;;19.07;100.00;98750.84;2088280;28;20477;-72
2021/07/29 00:57:32;;;;;;;42.30;38.17;;;;;;;19.04;100.00;98757.75;2088907;28;20453;-73
2021/07/29 00:58:32;;;;;;;43.53;39.07;;;;;;;19.02;100.00;98761.94;2088934;28;20225;-72
2021/07/29 00:59:34;;;;;;;49.57;39.40;;;;;;;19.01;100.00;98757.66;2088226;28;20459;-72
2021/07/29 01:00:35;;;;;;;44.93;40.07;;;;;;;18.99;100.00;98759.97;2079841;28;20223;-73
2021/07/29 01:01:38;;;;;;;49.33;42.93;;;;;;;19.00;100.00;98765.00;2079943;28;20553;-72
2021/07/29 01:02:38;;;;;;;44.70;39.83;;;;;;;19.01;100.00;98765.78;2087563;28;20306;-72
2021/07/29 01:03:40;;;;;;;47.07;42.17;;;;;;;18.98;100.00;98764.59;2088730;28;20464;-72
2021/07/29 01:04:40;;;;;;;52.63;41.80;;;;;;;18.97;100.00;98754.91;2088878;28;20258;-74
2021/07/29 01:05:42;;;;;;;48.83;42.77;;;;;;;18.98;100.00;98759.19;2088852;28;20444;-72
2021/07/29 01:06:43;;;;;;;51.37;42.50;;;;;;;18.99;100.00;98760.75;2088235;28;20222;-73
2021/07/29 01:07:44;;;;;;;56.17;43.43;;;;;;;19.02;100.00;98762.72;2087807;28;20442;-72
2021/07/29 01:08:58;;;;;;;49.77;42.93;;;;;;;19.03;100.00;98763.53;2088862;28;20222;-73
2021/07/29 01:10:00;;;;;;;49.63;41.63;;;;;;;19.01;100.00;98769.25;2081294;28;20947;-72
2021/07/29 01:11:01;;;;;;;50.33;41.33;;;;;;;19.00;100.00;98759.59;2080583;28;20480;-72
2021/07/29 01:12:03;;;;;;;57.77;43.90;;;;;;;18.98;100.00;98764.59;2080620;28;20526;-73
2021/07/29 01:13:04;;;;;;;47.27;40.80;;;;;;;19.01;100.00;98763.06;2079899;28;20533;-73
2021/07/29 01:14:05;;;;;;;52.73;43.20;;;;;;;19.03;100.00;98769.72;2079864;28;20525;-72
2021/07/29 01:15:08;;;;;;;53.80;43.77;;;;;;;19.03;100.00;98771.63;2080602;28;20492;-72
2021/07/29 01:16:09;;;;;;;58.87;42.17;;;;;;;19.03;100.00;98755.41;2086717;28;20449;-73
2021/07/29 01:17:11;;;;;;;50.80;43.87;;;;;;;19.02;100.00;98759.22;2088703;28;20945;-73
2021/07/29 01:18:12;;;;;;;56.97;44.37;;;;;;;19.05;100.00;98759.31;2088837;28;20686;-73
2021/07/29 01:19:14;;;;;;;62.00;44.47;;;;;;;19.05;100.00;98761.22;2088762;28;20449;-73
2021/07/29 01:20:21;;;;;;;55.13;46.17;;;;;;;19.04;100.00;98755.03;2088876;28;20568;-72
2021/07/29 01:21:23;;;;;;;59.33;47.33;;;;;;;19.02;100.00;98759.22;2088353;28;20544;-72
2021/07/29 01:22:29;;;;;;;55.53;45.53;;;;;;;19.02;100.00;98754.59;2087552;28;20484;-73
2021/07/29 01:23:30;;;;;;;56.90;46.23;;;;;;;19.05;100.00;98762.00;2088016;28;20448;-73
2021/07/29 01:24:31;;;;;;;63.90;46.93;;;;;;;19.03;100.00;98764.31;2088742;28;20450;-73
2021/07/29 01:25:33;;;;;;;58.10;45.57;;;;;;;19.06;100.00;98777.09;2088780;28;20446;-72
2021/07/29 01:26:33;;;;;;;61.37;47.53;;;;;;;19.04;100.00;98765.09;2088786;28;20227;-72
2021/07/29 01:27:37;;;;;;;61.83;45.90;;;;;;;19.02;100.00;98762.72;2088734;28;20453;-73
2021/07/29 01:28:38;;;;;;;63.50;46.13;;;;;;;19.02;100.00;98759.22;2088345;28;20230;-72
2021/07/29 01:29:40;;;;;;;56.17;46.00;;;;;;;18.98;100.00;98756.47;2088872;28;20467;-72
2021/07/29 01:30:42;;;;;;;68.57;47.87;;;;;;;18.99;100.00;98758.03;2088680;28;20945;-72
2021/07/29 01:31:42;;;;;;;63.97;46.37;;;;;;;18.99;100.00;98768.06;2088727;28;20488;-73
2021/07/29 01:32:44;;;;;;;63.67;47.80;;;;;;;18.99;100.00;98762.66;2088797;28;20441;-73
2021/07/29 01:33:45;;;;;;;65.63;48.87;;;;;;;19.00;100.00;98762.28;2089137;28;20225;-72
2021/07/29 01:34:46;;;;;;;62.03;47.77;;;;;;;19.02;100.00;98760.00;2088636;28;20453;-73
2021/07/29 01:35:48;;;;;;;64.33;47.40;;;;;;;19.03;100.00;98755.41;2088753;28;20246;-73
2021/07/29 01:36:50;;;;;;;64.60;48.47;;;;;;;19.03;100.00;98761.59;2088402;28;20461;-72
2021/07/29 01:37:51;;;;;;;61.73;46.20;;;;;;;19.03;100.00;98772.41;2088742;28;20457;-73
2021/07/29 01:38:52;;;;;;;68.27;47.47;;;;;;;19.00;100.00;98770.41;2088315;28;20492;-72
2021/07/29 01:39:53;;;;;;;62.93;47.93;;;;;;;19.01;100.00;98768.50;2088703;28;20445;-72
2021/07/29 01:40:54;;;;;;;60.77;45.80;;;;;;;18.96;100.00;98764.16;2088724;28;20767;-72
2021/07/29 01:41:56;;;;;;;61.57;45.63;;;;;;;18.99;100.00;98765.38;2087803;28;20785;-72
2021/07/29 01:42:58;;;;;;;63.20;48.60;;;;;;;18.97;100.00;98754.13;2079920;28;20231;-73
2021/07/29 01:43:58;;;;;;;60.00;46.83;;;;;;;18.99;100.00;98771.56;2088128;28;20446;-73
2021/07/29 01:45:00;;;;;;;63.70;46.97;;;;;;;18.97;100.00;98757.63;2079632;28;20969;-73
2021/07/29 01:46:01;;;;;;;68.83;50.23;;;;;;;18.99;100.00;98760.75;2088026;28;20225;-72
2021/07/29 01:47:02;;;;;;;65.00;46.70;;;;;;;19.00;100.00;98759.59;2087814;28;20452;-73
2021/07/29 01:48:04;;;;;;;64.30;46.90;;;;;;;18.99;100.00;98759.97;2079666;28;20574;-73
2021/07/29 01:49:05;;;;;;;64.57;46.97;;;;;;;18.97;100.00;98759.53;2087911;28;20465;-72
2021/07/29 01:50:07;;;;;;;64.17;48.40;;;;;;;18.97;100.00;98760.31;2087831;28;20967;-72
2021/07/29 01:51:10;;;;;;;64.10;47.40;;;;;;;18.95;100.00;98754.50;2087489;28;20834;-72
2021/07/29 01:52:10;;;;;;;60.80;47.93;;;;;;;18.98;100.00;98767.28;2088505;28;20492;-73
2021/07/29 01:53:12;;;;;;;60.80;47.60;;;;;;;18.99;100.00;98770.78;2088532;28;20453;-73
2021/07/29 01:54:13;;;;;;;65.07;47.10;;;;;;;18.99;100.00;98773.47;2087879;28;20301;-72
2021/07/29 01:55:15;;;;;;;66.33;48.77;;;;;;;18.99;100.00;98774.25;2087974;28;20954;-72
2021/07/29 01:56:16;;;;;;;62.73;49.63;;;;;;;18.98;100.00;98770.00;2087748;28;20227;-73
2021/07/29 01:57:18;;;;;;;62.67;47.80;;;;;;;18.97;100.00;98771.13;2079627;28;20529;-73
2021/07/29 01:58:18;;;;;;;69.73;49.00;;;;;;;18.98;100.00;98774.63;2087957;28;20480;-72
2021/07/29 01:59:20;;;;;;;63.23;48.80;;;;;;;18.99;100.00;98782.38;2088625;28;20497;-72
2021/07/29 02:00:22;;;;;;;73.47;49.37;;;;;;;18.96;100.00;98769.56;2087765;28;20608;-72
2021/07/29 02:01:24;;;;;;;62.83;48.03;;;;;;;19.02;100.00;98781.63;2087511;28;20500;-72
2021/07/29 02:02:25;;;;;;;78.80;50.23;;;;;;;19.01;100.00;98782.78;2088580;28;20453;-72
2021/07/29 02:03:26;;;;;;;71.47;49.10;;;;;;;19.01;100.00;98782.78;2088663;28;20465;-72
2021/07/29 02:04:27;;;;;;;70.93;48.33;;;;;;;18.99;100.00;98782.38;2088807;28;20959;-72
2021/07/29 02:05:28;;;;;;;62.97;48.77;;;;;;;18.98;100.00;98775.41;2087865;28;20312;-72
2021/07/29 02:06:31;;;;;;;65.47;49.80;;;;;;;18.95;100.00;98776.13;2087941;28;20472;-72
2021/07/29 02:07:32;;;;;;;55.13;46.57;;;;;;;18.90;100.00;98777.19;2088030;28;20258;-72
2021/07/29 02:08:33;;;;;;;60.00;48.73;;;;;;;18.92;100.00;98787.63;2088018;28;20441;-72
2021/07/29 02:09:34;;;;;;;51.80;44.17;;;;;;;18.90;100.00;98779.88;2088133;28;20226;-72
2021/07/29 02:10:36;;;;;;;50.93;45.27;;;;;;;18.89;100.00;98777.56;2087887;28;20449;-73
2021/07/29 02:11:37;;;;;;;54.57;45.90;;;;;;;18.87;100.00;98786.03;2087759;28;20760;-73
2021/07/29 02:12:40;;;;;;;51.33;43.97;;;;;;;18.86;100.00;98780.97;2087345;28;20818;-72
2021/07/29 02:13:40;;;;;;;52.43;43.23;;;;;;;18.85;100.00;98782.91;2088405;28;20458;-72
2021/07/29 02:14:42;;;;;;;52.97;44.57;;;;;;;18.84;100.00;98777.81;2088449;28;20453;-72
2021/07/29 02:15:42;;;;;;;48.77;43.13;;;;;;;18.85;100.00;98784.78;2088576;28;20687;-72
2021/07/29 02:16:44;;;;;;;47.40;42.47;;;;;;;18.82;100.00;98788.22;2088490;28;20450;-72
2021/07/29 02:17:45;;;;;;;45.03;40.17;;;;;;;18.82;100.00;98788.22;2088602;28;20249;-72
2021/07/29 02:18:46;;;;;;;43.57;39.27;;;;;;;18.79;100.00;98783.53;2088631;28;20437;-72
2021/07/29 02:19:48;;;;;;;42.97;38.57;;;;;;;18.76;100.00;98792.34;2089486;28;20665;-72
2021/07/29 02:20:48;;;;;;;43.67;39.17;;;;;;;18.72;100.00;98780.69;2090158;28;20502;-72
2021/07/29 02:21:52;;;;;;;43.47;39.33;;;;;;;18.74;100.00;98791.94;2089617;28;20492;-72
2021/07/29 02:22:52;;;;;;;45.30;41.00;;;;;;;18.71;100.00;98781.84;2089035;28;20697;-72
2021/07/29 02:23:54;;;;;;;45.53;40.93;;;;;;;18.71;100.00;98792.66;2090139;28;20444;-72
2021/07/29 02:24:55;;;;;;;46.93;41.83;;;;;;;18.71;100.00;98787.25;2090203;28;20229;-72
2021/07/29 02:25:56;;;;;;;44.57;40.37;;;;;;;18.75;100.00;98793.50;2089526;28;20453;-73
2021/07/29 02:26:58;;;;;;;45.87;41.30;;;;;;;18.74;100.00;98786.53;2089388;28;20281;-72
2021/07/29 02:27:58;;;;;;;44.97;40.33;;;;;;;18.74;100.00;98786.53;2089511;28;20456;-72
2021/07/29 02:29:00;;;;;;;45.77;40.97;;;;;;;18.73;100.00;98782.25;2089263;28;20982;-72
2021/07/29 02:30:01;;;;;;;44.33;40.13;;;;;;;18.75;100.00;98790.78;2090173;28;20697;-72
2021/07/29 02:31:02;;;;;;;44.50;38.93;;;;;;;18.73;100.00;98780.34;2089933;28;20926;-72
2021/07/29 02:32:03;;;;;;;43.80;39.50;;;;;;;18.74;100.00;98783.81;2090005;28;20306;-72
2021/07/29 02:33:05;;;;;;;45.37;40.13;;;;;;;18.76;100.00;98784.22;2090035;28;20975;-72
2021/07/29 02:34:05;;;;;;;42.20;38.30;;;;;;;18.75;100.00;98788.09;2089403;28;20489;-73
2021/07/29 02:35:08;;;;;;;47.20;42.40;;;;;;;18.75;100.00;98785.38;2089268;28;20457;-72
2021/07/29 02:36:08;;;;;;;45.53;40.97;;;;;;;18.71;100.00;98782.63;2088453;28;20298;-72
2021/07/29 02:37:11;;;;;;;45.67;40.93;;;;;;;18.72;100.00;98783.41;2080958;28;20999;-72
2021/07/29 02:38:12;;;;;;;42.90;38.63;;;;;;;18.72;100.00;98778.00;2089122;28;20227;-72
2021/07/29 02:39:13;;;;;;;42.73;38.43;;;;;;;18.73;100.00;98776.84;2089957;28;20443;-72
2021/07/29 02:40:14;;;;;;;44.03;39.20;;;;;;;18.72;100.00;98778.78;2090007;28;20234;-72
2021/07/29 02:41:15;;;;;;;42.20;38.03;;;;;;;18.73;100.00;98779.56;2090005;28;20927;-72
2021/07/29 02:42:17;;;;;;;44.63;40.07;;;;;;;18.75;100.00;98777.28;2090101;28;20294;-73
2021/07/29 02:43:17;;;;;;;43.17;38.57;;;;;;;18.73;100.00;98777.63;2089911;28;20227;-72
2021/07/29 02:44:19;;;;;;;42.20;38.17;;;;;;;18.72;100.00;98778.78;2090049;28;20437;-72
2021/07/29 02:45:19;;;;;;;42.53;38.23;;;;;;;18.72;100.00;98765.25;2089916;28;20370;-73
2021/07/29 02:46:21;;;;;;;41.27;37.17;;;;;;;18.74;100.00;98770.31;2089972;28;20963;-73
2021/07/29 02:47:21;;;;;;;41.77;37.80;;;;;;;18.77;100.00;98772.31;2089526;28;20230;-72
2021/07/29 02:48:23;;;;;;;42.27;37.90;;;;;;;18.75;100.00;98766.47;2089884;28;20465;-72
2021/07/29 02:49:24;;;;;;;42.53;37.77;;;;;;;18.73;100.00;98760.63;2089839;28;20222;-72
2021/07/29 02:50:25;;;;;;;42.77;38.37;;;;;;;18.72;100.00;98757.16;2089088;28;20457;-72
2021/07/29 02:51:26;;;;;;;41.13;36.90;;;;;;;18.76;100.00;98768.03;2089049;28;20250;-72
2021/07/29 02:52:29;;;;;;;41.20;36.37;;;;;;;18.74;100.00;98754.09;2089089;28;20453;-72
2021/07/29 02:53:32;;;;;;;40.83;36.93;;;;;;;18.74;100.00;98762.19;2089146;28;20226;-72
2021/07/29 02:54:34;;;;;;;43.33;39.23;;;;;;;18.71;100.00;98758.28;2089891;28;20438;-73
2021/07/29 02:55:35;;;;;;;42.80;38.47;;;;;;;18.72;100.00;98756.38;2088992;28;20446;-72
2021/07/29 02:56:36;;;;;;;43.60;39.30;;;;;;;18.72;100.00;98756.38;2089147;28;20453;-72
2021/07/29 02:57:37;;;;;;;42.70;38.60;;;;;;;18.70;100.00;98755.94;2088578;28;20226;-72
2021/07/29 02:58:38;;;;;;;41.57;37.67;;;;;;;18.71;100.00;98755.59;2089054;28;20451;-72
2021/07/29 02:59:39;;;;;;;43.20;38.63;;;;;;;18.69;100.00;98754.41;2089800;28;20222;-72
2021/07/29 03:00:40;;;;;;;41.13;37.07;;;;;;;18.72;100.00;98750.97;2089791;28;20472;-72
2021/07/29 03:01:41;;;;;;;41.70;37.60;;;;;;;18.71;100.00;98754.81;2089700;28;20318;-72
2021/07/29 03:02:43;;;;;;;43.03;38.80;;;;;;;18.72;100.00;98756.38;2089777;28;20954;-72
2021/07/29 03:03:44;;;;;;;42.57;38.37;;;;;;;18.72;100.00;98754.44;2089576;28;20227;-72
2021/07/29 03:04:45;;;;;;;43.50;39.20;;;;;;;18.72;100.00;98756.38;2089136;28;20454;-72
2021/07/29 03:05:46;;;;;;;42.03;37.53;;;;;;;18.74;100.00;98768.38;2080968;28;20223;-72
2021/07/29 03:06:48;;;;;;;41.57;37.40;;;;;;;18.73;100.00;98757.94;2088887;28;20461;-72
2021/07/29 03:07:49;;;;;;;42.73;38.73;;;;;;;18.76;100.00;98762.63;2089137;28;20223;-72
2021/07/29 03:08:51;;;;;;;42.17;37.97;;;;;;;18.74;100.00;98754.09;2089720;28;20528;-72
2021/07/29 03:09:52;;;;;;;42.90;38.87;;;;;;;18.79;100.00;98751.88;2088472;28;20454;-72
2021/07/29 03:10:57;;;;;;;41.73;37.10;;;;;;;18.79;100.00;98757.28;2080635;28;20974;-72
2021/07/29 03:11:58;;;;;;;39.57;35.87;;;;;;;18.75;100.00;98752.94;2088923;28;20246;-72
2021/07/29 03:13:01;;;;;;;36.97;33.30;;;;;;;18.69;100.00;98749.00;2089009;28;20445;-72
2021/07/29 03:14:02;;;;;;;36.33;32.97;;;;;;;18.66;100.00;98750.47;2089831;28;20576;-72
2021/07/29 03:15:04;;;;;;;38.20;34.77;;;;;;;18.69;100.00;98741.66;2089798;28;20485;-72
2021/07/29 03:16:05;;;;;;;38.13;34.43;;;;;;;18.64;100.00;98734.59;2089820;28;20226;-73
2021/07/29 03:17:06;;;;;;;36.90;33.37;;;;;;;18.66;100.00;98739.66;2089625;28;20441;-72
2021/07/29 03:18:07;;;;;;;34.80;31.40;;;;;;;18.62;100.00;98744.97;2089340;28;20689;-72
2021/07/29 03:19:09;;;;;;;35.67;32.10;;;;;;;18.61;100.00;98735.31;2089620;28;20795;-73
2021/07/29 03:20:10;;;;;;;34.13;30.77;;;;;;;18.64;100.00;98750.00;2089720;28;20249;-73
2021/07/29 03:21:12;;;;;;;33.83;30.80;;;;;;;18.67;100.00;98753.94;2089610;28;20445;-73
2021/07/29 03:22:13;;;;;;;34.30;30.67;;;;;;;18.65;100.00;98759.72;2089801;28;20529;-73
2021/07/29 03:23:16;;;;;;;36.27;32.43;;;;;;;18.59;100.00;98758.41;2089618;28;20441;-73
2021/07/29 03:24:16;;;;;;;32.07;29.17;;;;;;;18.55;100.00;98747.53;2089632;28;20218;-73
2021/07/29 03:25:18;;;;;;;31.10;28.30;;;;;;;18.60;100.00;98760.75;2089732;28;20479;-73
2021/07/29 03:26:18;;;;;;;34.43;31.20;;;;;;;18.57;100.00;98760.69;2089552;28;20662;-73
2021/07/29 03:27:20;;;;;;;31.60;28.47;;;;;;;18.55;100.00;98754.84;2089657;28;20472;-73
2021/07/29 03:28:21;;;;;;;32.63;29.60;;;;;;;18.53;100.00;98751.72;2089670;28;20726;-73
2021/07/29 03:29:27;;;;;;;33.70;30.50;;;;;;;18.52;100.00;98761.75;2089668;28;20802;-72
2021/07/29 03:30:27;;;;;;;33.07;30.07;;;;;;;18.51;100.00;98751.31;2089288;28;20290;-72
2021/07/29 03:31:29;;;;;;;32.67;29.83;;;;;;;18.49;100.00;98754.34;2088816;28;20513;-73
2021/07/29 03:32:29;;;;;;;33.33;30.13;;;;;;;18.52;100.00;98756.34;2088816;28;20219;-72
2021/07/29 03:33:31;;;;;;;34.23;30.93;;;;;;;18.54;100.00;98753.28;2089529;28;20445;-73
2021/07/29 03:34:32;;;;;;;33.13;30.00;;;;;;;18.56;100.00;98757.19;2089624;28;20254;-73
2021/07/29 03:35:33;;;;;;;33.17;29.97;;;;;;;18.53;100.00;98751.72;2088739;28;20441;-73
2021/07/29 03:36:35;;;;;;;34.23;31.13;;;;;;;18.53;100.00;98755.22;2088678;28;20588;-73
2021/07/29 03:37:36;;;;;;;33.63;30.43;;;;;;;18.52;100.00;98752.88;2089610;28;20477;-73
2021/07/29 03:38:38;;;;;;;33.73;30.43;;;;;;;18.51;100.00;98752.09;2089730;28;20454;-73
2021/07/29 03:39:39;;;;;;;32.90;29.73;;;;;;;18.48;100.00;98758.19;2088389;28;20565;-73
2021/07/29 03:40:41;;;;;;;34.23;30.93;;;;;;;18.49;100.00;98764.38;2088726;28;20471;-73
2021/07/29 03:41:41;;;;;;;32.80;29.77;;;;;;;18.50;100.00;98761.31;2089450;28;20227;-73
2021/07/29 03:42:43;;;;;;;34.90;31.67;;;;;;;18.52;100.00;98756.34;2089506;28;20451;-73
2021/07/29 03:43:44;;;;;;;33.77;30.80;;;;;;;18.52;100.00;98764.47;2089426;28;20313;-73
2021/07/29 03:44:45;;;;;;;34.50;31.10;;;;;;;18.53;100.00;98760.63;2089512;28;20438;-73
2021/07/29 03:45:46;;;;;;;34.53;31.07;;;;;;;18.52;100.00;98761.75;2089448;28;20214;-73
2021/07/29 03:46:47;;;;;;;35.17;31.83;;;;;;;18.53;100.00;98765.25;2088591;28;20541;-73
2021/07/29 03:47:48;;;;;;;33.77;30.20;;;;;;;18.54;100.00;98764.88;2088612;28;20677;-73
2021/07/29 03:48:49;;;;;;;35.83;32.13;;;;;;;18.56;100.00;98770.72;2088889;28;20846;-74
2021/07/29 03:49:50;;;;;;;34.67;31.03;;;;;;;18.56;100.00;98775.34;2088775;28;20692;-73
2021/07/29 03:50:52;;;;;;;34.53;31.23;;;;;;;18.56;100.00;98770.72;2089466;28;20454;-73
2021/07/29 03:51:52;;;;;;;34.33;31.33;;;;;;;18.60;100.00;98773.50;2089104;28;20233;-73
2021/07/29 03:52:54;;;;;;;33.47;30.23;;;;;;;18.58;100.00;98775.75;2088442;28;20454;-72
2021/07/29 03:53:56;;;;;;;33.17;30.13;;;;;;;18.55;100.00;98768.38;2088754;28;20812;-73
2021/07/29 03:54:58;;;;;;;34.90;31.30;;;;;;;18.55;100.00;98762.97;2089305;28;20461;-73
2021/07/29 03:55:58;;;;;;;34.30;30.80;;;;;;;18.58;100.00;98763.03;2088914;28;20437;-73
2021/07/29 03:57:00;;;;;;;33.97;30.70;;;;;;;18.57;100.00;98764.16;2088743;28;20441;-73
2021/07/29 03:58:01;;;;;;;34.47;31.27;;;;;;;18.59;100.00;98772.72;2089393;28;20631;-73
2021/07/29 03:59:03;;;;;;;35.53;32.03;;;;;;;18.60;100.00;98768.88;2089383;28;20453;-73
2021/07/29 04:00:05;;;;;;;33.10;29.93;;;;;;;18.58;100.00;98768.44;2088813;28;20545;-73
2021/07/29 04:01:09;;;;;;;34.70;31.60;;;;;;;18.59;100.00;98770.00;2088548;28;20450;-73
2021/07/29 04:02:10;;;;;;;34.23;31.03;;;;;;;18.60;100.00;98768.88;2088788;28;20466;-73
2021/07/29 04:03:11;;;;;;;33.77;30.50;;;;;;;18.60;100.00;98771.56;2089411;28;20453;-73
2021/07/29 04:04:12;;;;;;;33.67;30.50;;;;;;;18.58;100.00;98765.72;2088722;28;20312;-73
2021/07/29 04:05:13;;;;;;;33.00;29.97;;;;;;;18.59;100.00;98767.31;2080412;28;20549;-73
2021/07/29 04:06:16;;;;;;;33.37;30.07;;;;;;;18.59;100.00;98764.63;2088501;28;20222;-73
2021/07/29 04:07:17;;;;;;;34.23;30.93;;;;;;;18.60;100.00;98768.88;2089184;28;20449;-73
2021/07/29 04:08:18;;;;;;;34.30;30.83;;;;;;;18.59;100.00;98764.63;2089284;28;20465;-73
2021/07/29 04:09:21;;;;;;;33.33;30.07;;;;;;;18.58;100.00;98768.44;2089235;28;20434;-73
2021/07/29 04:10:21;;;;;;;33.10;29.80;;;;;;;18.60;100.00;98773.50;2088911;28;20683;-72
2021/07/29 04:11:23;;;;;;;34.03;30.90;;;;;;;18.61;100.00;98775.84;2089317;28;20812;-72
2021/07/29 04:12:23;;;;;;;33.63;30.47;;;;;;;18.68;100.00;98769.81;2088702;28;20246;-73
2021/07/29 04:13:25;;;;;;;34.33;30.93;;;;;;;18.69;100.00;98774.09;2088526;28;20445;-73
2021/07/29 04:14:26;;;;;;;34.67;31.27;;;;;;;18.71;100.00;98771.81;2089248;28;20223;-73
2021/07/29 04:15:28;;;;;;;34.37;30.87;;;;;;;18.70;100.00;98772.16;2088592;28;20485;-73
2021/07/29 04:16:28;;;;;;;33.80;30.60;;;;;;;18.70;100.00;98777.56;2080224;28;20477;-73
2021/07/29 04:17:30;;;;;;;34.93;31.53;;;;;;;18.69;100.00;98776.78;2088460;28;20445;-73
2021/07/29 04:18:31;;;;;;;35.53;32.17;;;;;;;18.71;100.00;98777.22;2089234;28;20218;-73
2021/07/29 04:19:33;;;;;;;33.60;30.47;;;;;;;18.73;100.00;98783.03;2088608;28;21018;-73
2021/07/29 04:20:34;;;;;;;36.87;33.37;;;;;;;18.76;100.00;98785.00;2088541;28;20441;-73
2021/07/29 04:21:35;;;;;;;35.90;32.33;;;;;;;18.80;100.00;98783.19;2089094;28;20454;-73
2021/07/29 04:22:36;;;;;;;36.37;32.80;;;;;;;18.83;100.00;98784.38;2088408;28;20658;-74
2021/07/29 04:23:38;;;;;;;39.63;32.30;;;;;;;18.85;100.00;98776.69;2088001;28;20461;-72
2021/07/29 04:24:40;;;;;;;37.00;33.37;;;;;;;18.93;100.00;98781.09;2089088;28;20623;-73
2021/07/29 04:25:41;;;;;;;36.63;32.83;;;;;;;18.99;100.00;98792.41;2088218;28;20503;-73
2021/07/29 04:26:42;;;;;;;38.67;34.70;;;;;;;19.00;100.00;98783.94;2088288;28;20956;-73
2021/07/29 04:27:43;;;;;;;36.70;33.10;;;;;;;19.05;100.00;98786.34;2089172;28;20468;-72
2021/07/29 04:28:44;;;;;;;35.97;32.53;;;;;;;19.09;100.00;98791.81;2088245;28;20223;-73
2021/07/29 04:29:46;;;;;;;39.23;35.13;;;;;;;19.08;100.00;98796.44;2088416;28;20445;-73
2021/07/29 04:30:46;;;;;;;41.23;34.83;;;;;;;19.07;100.00;98794.88;2088541;28;20219;-73
2021/07/29 04:31:48;;;;;;;37.73;33.97;;;;;;;19.05;100.00;98799.88;2088327;28;20449;-73
2021/07/29 04:32:48;;;;;;;37.97;33.93;;;;;;;19.05;100.00;98790.97;2089113;28;20257;-73
2021/07/29 04:33:52;;;;;;;39.20;35.17;;;;;;;19.06;100.00;98793.31;2089031;28;20454;-73
2021/07/29 04:34:53;;;;;;;37.53;33.77;;;;;;;19.08;100.00;98785.63;2082361;28;20228;-73
2021/07/29 04:35:54;;;;;;;38.40;34.23;;;;;;;19.08;100.00;98801.84;2080774;28;20503;-73
2021/07/29 04:36:55;;;;;;;41.10;35.90;;;;;;;19.06;100.00;98796.03;2079850;28;20232;-73
2021/07/29 04:37:57;;;;;;;38.70;34.47;;;;;;;19.11;100.00;98800.34;2079938;28;21028;-73
2021/07/29 04:38:57;;;;;;;40.87;36.53;;;;;;;19.08;100.00;98796.44;2080829;28;20227;-73
2021/07/29 04:40:00;;;;;;;48.50;36.67;;;;;;;19.09;100.00;98803.41;2079825;28;20442;-73
2021/07/29 04:41:02;;;;;;;46.97;37.73;;;;;;;19.08;100.00;98801.84;2080050;28;20222;-73